sensor_id;sensor_type;location;lat;lon;timestamp;pressure;altitude;pressure_sealevel;temperature;humidity
10135;BME280;5107;48.850;8.924;2023-11-22T00:01:53;97097.19;;;6.28;96.91
10135;BME280;5107;48.850;8.924;2023-11-22T00:04:18;97110.34;;;6.07;96.78
10135;BME280;5107;48.850;8.924;2023-11-22T00:06:45;97107.81;;;5.96;97.56
10135;BME280;5107;48.850;8.924;2023-11-22T00:09:10;97108.66;;;5.76;97.38
10135;BME280;5107;48.850;8.924;2023-11-22T00:11:36;97104.47;;;5.64;98.08
10135;BME280;5107;48.850;8.924;2023-11-22T00:14:01;97107.28;;;5.51;98.05
10135;BME280;5107;48.850;8.924;2023-11-22T00:16:26;97120.59;;;5.48;98.95
10135;BME280;5107;48.850;8.924;2023-11-22T00:18:52;97125.50;;;5.42;98.85
10135;BME280;5107;48.850;8.924;2023-11-22T00:21:17;97117.34;;;5.35;98.57
10135;BME280;5107;48.850;8.924;2023-11-22T00:23:45;97126.63;;;5.28;98.74
10135;BME280;5107;48.850;8.924;2023-11-22T00:26:11;97126.38;;;5.31;98.90
10135;BME280;5107;48.850;8.924;2023-11-22T00:28:37;97130.56;;;5.22;98.30
10135;BME280;5107;48.850;8.924;2023-11-22T00:31:02;97137.13;;;5.17;98.57
10135;BME280;5107;48.850;8.924;2023-11-22T00:33:27;97142.59;;;5.14;98.33
10135;BME280;5107;48.850;8.924;2023-11-22T00:35:53;97148.66;;;5.03;98.14
10135;BME280;5107;48.850;8.924;2023-11-22T00:38:22;97152.56;;;5.09;99.90
10135;BME280;5107;48.850;8.924;2023-11-22T00:40:47;97157.78;;;5.09;99.32
10135;BME280;5107;48.850;8.924;2023-11-22T00:43:12;97159.81;;;5.05;99.08
10135;BME280;5107;48.850;8.924;2023-11-22T00:45:38;97154.50;;;4.95;97.60
10135;BME280;5107;48.850;8.924;2023-11-22T00:48:03;97150.50;;;4.91;97.50
10135;BME280;5107;48.850;8.924;2023-11-22T00:50:28;97151.25;;;4.82;98.27
10135;BME280;5107;48.850;8.924;2023-11-22T00:52:54;97153.38;;;4.77;98.13
10135;BME280;5107;48.850;8.924;2023-11-22T00:55:19;97161.06;;;4.79;97.90
10135;BME280;5107;48.850;8.924;2023-11-22T00:57:45;97167.00;;;4.81;98.24
10135;BME280;5107;48.850;8.924;2023-11-22T01:00:10;97175.66;;;4.81;98.67
10135;BME280;5107;48.850;8.924;2023-11-22T01:02:37;97175.31;;;4.75;98.13
10135;BME280;5107;48.850;8.924;2023-11-22T01:05:05;97185.16;;;4.71;97.93
10135;BME280;5107;48.850;8.924;2023-11-22T01:07:33;97179.22;;;4.69;96.80
10135;BME280;5107;48.850;8.924;2023-11-22T01:09:58;97182.81;;;4.68;97.50
10135;BME280;5107;48.850;8.924;2023-11-22T01:12:23;97184.91;;;4.74;97.81
10135;BME280;5107;48.850;8.924;2023-11-22T01:14:49;97185.16;;;4.71;98.42
10135;BME280;5107;48.850;8.924;2023-11-22T01:17:14;97190.13;;;4.74;97.80
10135;BME280;5107;48.850;8.924;2023-11-22T01:19:39;97195.84;;;4.68;96.02
10135;BME280;5107;48.850;8.924;2023-11-22T01:22:05;97196.50;;;4.70;96.47
10135;BME280;5107;48.850;8.924;2023-11-22T01:24:31;97198.56;;;4.67;96.63
10135;BME280;5107;48.850;8.924;2023-11-22T01:26:56;97204.34;;;4.70;97.59
10135;BME280;5107;48.850;8.924;2023-11-22T01:29:21;97199.38;;;4.67;97.55
10135;BME280;5107;48.850;8.924;2023-11-22T01:31:47;97202.22;;;4.75;96.20
10135;BME280;5107;48.850;8.924;2023-11-22T01:34:12;97203.59;;;4.79;96.68
10135;BME280;5107;48.850;8.924;2023-11-22T01:36:42;97214.63;;;4.72;95.67
10135;BME280;5107;48.850;8.924;2023-11-22T01:39:07;97206.72;;;4.73;96.70
10135;BME280;5107;48.850;8.924;2023-11-22T01:41:32;97206.25;;;4.68;95.23
10135;BME280;5107;48.850;8.924;2023-11-22T01:44:00;97215.59;;;4.71;95.02
10135;BME280;5107;48.850;8.924;2023-11-22T01:46:25;97214.75;;;4.70;94.23
10135;BME280;5107;48.850;8.924;2023-11-22T01:48:52;97221.53;;;4.62;95.37
10135;BME280;5107;48.850;8.924;2023-11-22T01:51:22;97224.28;;;4.60;95.41
10135;BME280;5107;48.850;8.924;2023-11-22T01:53:50;97233.59;;;4.63;94.13
10135;BME280;5107;48.850;8.924;2023-11-22T01:56:19;97232.78;;;4.62;93.18
10135;BME280;5107;48.850;8.924;2023-11-22T01:58:45;97240.25;;;4.55;92.48
10135;BME280;5107;48.850;8.924;2023-11-22T02:01:12;97243.91;;;4.53;92.41
10135;BME280;5107;48.850;8.924;2023-11-22T02:03:38;97245.81;;;4.40;92.06
10135;BME280;5107;48.850;8.924;2023-11-22T02:06:04;97254.69;;;4.37;93.02
10135;BME280;5107;48.850;8.924;2023-11-22T02:08:30;97256.25;;;4.40;93.28
10135;BME280;5107;48.850;8.924;2023-11-22T02:10:59;97252.44;;;4.33;92.22
10135;BME280;5107;48.850;8.924;2023-11-22T02:13:25;97267.59;;;4.28;92.06
10135;BME280;5107;48.850;8.924;2023-11-22T02:15:51;97256.69;;;4.23;92.45
10135;BME280;5107;48.850;8.924;2023-11-22T02:18:21;97260.50;;;4.30;94.05
10135;BME280;5107;48.850;8.924;2023-11-22T02:20:46;97256.47;;;4.26;92.47
10135;BME280;5107;48.850;8.924;2023-11-22T02:23:12;97260.25;;;4.22;91.32
10135;BME280;5107;48.850;8.924;2023-11-22T02:25:39;97267.09;;;4.11;91.62
10135;BME280;5107;48.850;8.924;2023-11-22T02:28:05;97257.88;;;4.07;90.72
10135;BME280;5107;48.850;8.924;2023-11-22T02:30:30;97264.25;;;4.03;91.66
10135;BME280;5107;48.850;8.924;2023-11-22T02:32:55;97273.81;;;3.92;89.63
10135;BME280;5107;48.850;8.924;2023-11-22T02:35:21;97279.13;;;3.90;92.02
10135;BME280;5107;48.850;8.924;2023-11-22T02:37:46;97278.88;;;3.82;89.93
10135;BME280;5107;48.850;8.924;2023-11-22T02:40:17;97283.56;;;3.77;90.37
10135;BME280;5107;48.850;8.924;2023-11-22T02:42:44;97285.81;;;3.70;89.95
10135;BME280;5107;48.850;8.924;2023-11-22T02:45:10;97281.78;;;3.66;89.90
10135;BME280;5107;48.850;8.924;2023-11-22T02:47:39;97283.66;;;3.64;90.68
10135;BME280;5107;48.850;8.924;2023-11-22T02:50:05;97291.41;;;3.53;89.89
10135;BME280;5107;48.850;8.924;2023-11-22T02:52:31;97300.38;;;3.49;90.85
10135;BME280;5107;48.850;8.924;2023-11-22T02:54:57;97310.06;;;3.47;91.38
10135;BME280;5107;48.850;8.924;2023-11-22T02:57:22;97303.75;;;3.38;91.69
10135;BME280;5107;48.850;8.924;2023-11-22T02:59:47;97312.00;;;3.32;91.59
10135;BME280;5107;48.850;8.924;2023-11-22T03:02:13;97321.41;;;3.22;92.49
10135;BME280;5107;48.850;8.924;2023-11-22T03:04:40;97329.53;;;3.18;92.24
10135;BME280;5107;48.850;8.924;2023-11-22T03:07:08;97323.63;;;3.16;93.02
10135;BME280;5107;48.850;8.924;2023-11-22T03:09:34;97330.34;;;3.18;94.83
10135;BME280;5107;48.850;8.924;2023-11-22T03:11:59;97333.38;;;3.12;93.83
10135;BME280;5107;48.850;8.924;2023-11-22T03:14:25;97337.97;;;3.09;95.24
10135;BME280;5107;48.850;8.924;2023-11-22T03:16:50;97343.56;;;3.15;95.98
10135;BME280;5107;48.850;8.924;2023-11-22T03:19:15;97348.97;;;3.12;95.20
10135;BME280;5107;48.850;8.924;2023-11-22T03:21:41;97344.72;;;3.11;95.85
10135;BME280;5107;48.850;8.924;2023-11-22T03:24:09;97343.13;;;3.21;95.61
10135;BME280;5107;48.850;8.924;2023-11-22T03:26:35;97335.63;;;3.29;94.77
10135;BME280;5107;48.850;8.924;2023-11-22T03:29:01;97332.81;;;3.32;94.61
10135;BME280;5107;48.850;8.924;2023-11-22T03:31:27;97336.34;;;3.31;96.16
10135;BME280;5107;48.850;8.924;2023-11-22T03:33:54;97333.75;;;3.31;96.90
10135;BME280;5107;48.850;8.924;2023-11-22T03:36:20;97340.78;;;3.42;96.94
10135;BME280;5107;48.850;8.924;2023-11-22T03:38:46;97351.88;;;3.44;96.24
10135;BME280;5107;48.850;8.924;2023-11-22T03:41:11;97350.84;;;3.47;95.96
10135;BME280;5107;48.850;8.924;2023-11-22T03:43:36;97353.44;;;3.47;96.15
10135;BME280;5107;48.850;8.924;2023-11-22T03:46:02;97355.28;;;3.57;95.27
10135;BME280;5107;48.850;8.924;2023-11-22T03:48:27;97358.19;;;3.53;95.25
10135;BME280;5107;48.850;8.924;2023-11-22T03:50:53;97365.53;;;3.71;94.15
10135;BME280;5107;48.850;8.924;2023-11-22T03:53:18;97365.78;;;3.79;93.85
10135;BME280;5107;48.850;8.924;2023-11-22T03:55:46;97367.94;;;3.62;92.69
10135;BME280;5107;48.850;8.924;2023-11-22T03:58:12;97375.09;;;3.71;93.85
10135;BME280;5107;48.850;8.924;2023-11-22T04:00:37;97381.88;;;3.73;93.12
10135;BME280;5107;48.850;8.924;2023-11-22T04:03:03;97375.81;;;3.73;92.50
10135;BME280;5107;48.850;8.924;2023-11-22T04:05:29;97374.09;;;3.61;92.36
10135;BME280;5107;48.850;8.924;2023-11-22T04:07:54;97373.88;;;3.64;91.91
10135;BME280;5107;48.850;8.924;2023-11-22T04:10:21;97390.53;;;3.61;91.69
10135;BME280;5107;48.850;8.924;2023-11-22T04:12:47;97378.69;;;3.57;91.30
10135;BME280;5107;48.850;8.924;2023-11-22T04:15:13;97381.63;;;3.53;90.76
10135;BME280;5107;48.850;8.924;2023-11-22T04:17:39;97382.16;;;3.45;91.14
10135;BME280;5107;48.850;8.924;2023-11-22T04:20:08;97380.75;;;3.41;90.51
10135;BME280;5107;48.850;8.924;2023-11-22T04:22:36;97388.16;;;3.34;91.31
10135;BME280;5107;48.850;8.924;2023-11-22T04:25:02;97385.66;;;3.33;91.30
10135;BME280;5107;48.850;8.924;2023-11-22T04:27:28;97383.34;;;3.41;92.59
10135;BME280;5107;48.850;8.924;2023-11-22T04:29:53;97397.47;;;3.37;89.18
10135;BME280;5107;48.850;8.924;2023-11-22T04:32:18;97397.63;;;3.23;90.36
10135;BME280;5107;48.850;8.924;2023-11-22T04:34:44;97401.47;;;3.30;90.45
10135;BME280;5107;48.850;8.924;2023-11-22T04:37:09;97407.50;;;3.30;90.61
10135;BME280;5107;48.850;8.924;2023-11-22T04:39:35;97412.28;;;3.24;89.98
10135;BME280;5107;48.850;8.924;2023-11-22T04:42:00;97425.84;;;3.16;89.59
10135;BME280;5107;48.850;8.924;2023-11-22T04:44:26;97426.66;;;3.17;90.63
10135;BME280;5107;48.850;8.924;2023-11-22T04:46:51;97428.44;;;3.16;91.04
10135;BME280;5107;48.850;8.924;2023-11-22T04:49:17;97425.84;;;3.16;89.81
10135;BME280;5107;48.850;8.924;2023-11-22T04:51:42;97443.50;;;3.11;89.31
10135;BME280;5107;48.850;8.924;2023-11-22T04:54:09;97449.31;;;3.15;88.65
10135;BME280;5107;48.850;8.924;2023-11-22T04:56:34;97448.16;;;3.19;89.54
10135;BME280;5107;48.850;8.924;2023-11-22T04:58:59;97454.63;;;3.13;89.83
10135;BME280;5107;48.850;8.924;2023-11-22T05:01:31;97458.06;;;3.14;90.32
10135;BME280;5107;48.850;8.924;2023-11-22T05:03:56;97452.75;;;3.15;90.24
10135;BME280;5107;48.850;8.924;2023-11-22T05:06:22;97454.09;;;3.21;90.83
10135;BME280;5107;48.850;8.924;2023-11-22T05:08:47;97454.50;;;3.27;90.65
10135;BME280;5107;48.850;8.924;2023-11-22T05:11:12;97458.88;;;3.27;89.85
10135;BME280;5107;48.850;8.924;2023-11-22T05:13:38;97459.94;;;3.24;89.63
10135;BME280;5107;48.850;8.924;2023-11-22T05:16:03;97462.94;;;3.31;89.24
10135;BME280;5107;48.850;8.924;2023-11-22T05:18:29;97476.75;;;3.19;88.90
10135;BME280;5107;48.850;8.924;2023-11-22T05:20:54;97479.25;;;3.20;91.18
10135;BME280;5107;48.850;8.924;2023-11-22T05:23:19;97477.69;;;3.30;90.52
10135;BME280;5107;48.850;8.924;2023-11-22T05:25:45;97480.00;;;3.22;89.72
10135;BME280;5107;48.850;8.924;2023-11-22T05:28:10;97486.31;;;3.18;90.28
10135;BME280;5107;48.850;8.924;2023-11-22T05:30:35;97480.28;;;3.30;88.16
10135;BME280;5107;48.850;8.924;2023-11-22T05:33:02;97477.78;;;3.29;88.35
10135;BME280;5107;48.850;8.924;2023-11-22T05:35:30;97476.66;;;3.20;89.20
10135;BME280;5107;48.850;8.924;2023-11-22T05:37:56;97474.28;;;3.17;89.50
10135;BME280;5107;48.850;8.924;2023-11-22T05:40:23;97473.13;;;3.21;89.86
10135;BME280;5107;48.850;8.924;2023-11-22T05:42:49;97476.66;;;3.20;90.75
10135;BME280;5107;48.850;8.924;2023-11-22T05:45:14;97474.69;;;3.11;89.10
10135;BME280;5107;48.850;8.924;2023-11-22T05:47:40;97482.69;;;3.21;88.59
10135;BME280;5107;48.850;8.924;2023-11-22T05:50:07;97487.59;;;3.25;89.27
10135;BME280;5107;48.850;8.924;2023-11-22T05:52:32;97487.38;;;3.16;89.33
10135;BME280;5107;48.850;8.924;2023-11-22T05:54:58;97488.53;;;3.12;89.46
10135;BME280;5107;48.850;8.924;2023-11-22T05:57:23;97487.38;;;3.28;90.13
10135;BME280;5107;48.850;8.924;2023-11-22T05:59:48;97497.06;;;3.14;89.67
10135;BME280;5107;48.850;8.924;2023-11-22T06:02:14;97504.13;;;3.24;89.69
10135;BME280;5107;48.850;8.924;2023-11-22T06:04:39;97506.94;;;3.21;90.31
10135;BME280;5107;48.850;8.924;2023-11-22T06:07:05;97512.00;;;3.10;89.49
10135;BME280;5107;48.850;8.924;2023-11-22T06:09:30;97518.56;;;3.28;91.25
10135;BME280;5107;48.850;8.924;2023-11-22T06:11:55;97532.94;;;3.21;89.50
10135;BME280;5107;48.850;8.924;2023-11-22T06:14:21;97531.91;;;3.24;89.51
10135;BME280;5107;48.850;8.924;2023-11-22T06:16:47;97543.75;;;3.15;89.93
10135;BME280;5107;48.850;8.924;2023-11-22T06:19:12;97532.50;;;3.15;89.97
10135;BME280;5107;48.850;8.924;2023-11-22T06:21:37;97540.81;;;3.20;89.75
10135;BME280;5107;48.850;8.924;2023-11-22T06:24:04;97553.50;;;3.12;89.49
10135;BME280;5107;48.850;8.924;2023-11-22T06:26:33;97553.00;;;3.19;90.42
10135;BME280;5107;48.850;8.924;2023-11-22T06:28:59;97547.59;;;3.22;88.77
10135;BME280;5107;48.850;8.924;2023-11-22T06:31:25;97552.28;;;3.30;88.73
10135;BME280;5107;48.850;8.924;2023-11-22T06:33:50;97550.50;;;3.30;89.48
10135;BME280;5107;48.850;8.924;2023-11-22T06:36:17;97558.94;;;3.21;88.67
10135;BME280;5107;48.850;8.924;2023-11-22T06:38:43;97555.72;;;4.05;99.52
10135;BME280;5107;48.850;8.924;2023-11-22T06:41:13;97559.31;;;4.86;100.00
10135;BME280;5107;48.850;8.924;2023-11-22T06:43:38;97559.81;;;4.56;97.21
10135;BME280;5107;48.850;8.924;2023-11-22T06:46:03;97562.88;;;4.14;90.15
10135;BME280;5107;48.850;8.924;2023-11-22T06:48:31;97554.50;;;3.85;86.88
10135;BME280;5107;48.850;8.924;2023-11-22T06:50:57;97566.81;;;3.70;86.16
10135;BME280;5107;48.850;8.924;2023-11-22T06:53:23;97562.25;;;3.49;86.65
10135;BME280;5107;48.850;8.924;2023-11-22T06:55:48;97569.97;;;3.37;84.68
10135;BME280;5107;48.850;8.924;2023-11-22T06:58:13;97581.50;;;3.21;86.27
10135;BME280;5107;48.850;8.924;2023-11-22T07:00:39;97578.47;;;3.14;86.77
10135;BME280;5107;48.850;8.924;2023-11-22T07:03:05;97582.31;;;3.09;85.04
10135;BME280;5107;48.850;8.924;2023-11-22T07:05:31;97583.22;;;2.95;85.14
10135;BME280;5107;48.850;8.924;2023-11-22T07:07:56;97593.28;;;2.87;85.26
10135;BME280;5107;48.850;8.924;2023-11-22T07:10:22;97591.34;;;3.03;89.49
10135;BME280;5107;48.850;8.924;2023-11-22T07:12:47;97590.09;;;2.96;85.94
10135;BME280;5107;48.850;8.924;2023-11-22T07:15:13;97592.22;;;2.77;85.30
10135;BME280;5107;48.850;8.924;2023-11-22T07:17:41;97604.41;;;2.76;84.27
10135;BME280;5107;48.850;8.924;2023-11-22T07:20:08;97606.84;;;2.65;83.54
10135;BME280;5107;48.850;8.924;2023-11-22T07:22:37;97609.72;;;2.60;82.83
10135;BME280;5107;48.850;8.924;2023-11-22T07:25:03;97611.69;;;2.57;83.45
10135;BME280;5107;48.850;8.924;2023-11-22T07:27:28;97622.94;;;2.43;81.82
10135;BME280;5107;48.850;8.924;2023-11-22T07:29:54;97620.84;;;2.36;80.68
10135;BME280;5107;48.850;8.924;2023-11-22T07:32:19;97633.25;;;2.72;88.18
10135;BME280;5107;48.850;8.924;2023-11-22T07:34:46;97639.44;;;2.56;84.20
10135;BME280;5107;48.850;8.924;2023-11-22T07:37:11;97651.97;;;2.50;82.90
10135;BME280;5107;48.850;8.924;2023-11-22T07:39:38;97653.47;;;2.40;79.74
10135;BME280;5107;48.850;8.924;2023-11-22T07:42:05;97656.25;;;2.37;82.45
10135;BME280;5107;48.850;8.924;2023-11-22T07:44:34;97670.56;;;2.71;85.63
10135;BME280;5107;48.850;8.924;2023-11-22T07:47:01;97665.13;;;3.27;88.57
10135;BME280;5107;48.850;8.924;2023-11-22T07:49:27;97655.31;;;2.79;78.03
10135;BME280;5107;48.850;8.924;2023-11-22T07:51:54;97656.56;;;2.86;84.52
10135;BME280;5107;48.850;8.924;2023-11-22T07:54:20;97653.19;;;3.37;88.04
10135;BME280;5107;48.850;8.924;2023-11-22T07:56:50;97657.47;;;2.99;79.97
10135;BME280;5107;48.850;8.924;2023-11-22T07:59:18;97645.75;;;3.19;83.83
10135;BME280;5107;48.850;8.924;2023-11-22T08:01:43;97644.50;;;2.85;75.75
10135;BME280;5107;48.850;8.924;2023-11-22T08:04:09;97637.81;;;2.68;77.29
10135;BME280;5107;48.850;8.924;2023-11-22T08:06:35;97652.41;;;2.56;77.22
10135;BME280;5107;48.850;8.924;2023-11-22T08:09:00;97657.44;;;2.45;77.58
10135;BME280;5107;48.850;8.924;2023-11-22T08:11:26;97657.31;;;2.34;76.42
10135;BME280;5107;48.850;8.924;2023-11-22T08:13:53;97660.69;;;2.35;76.98
10135;BME280;5107;48.850;8.924;2023-11-22T08:16:20;97653.31;;;2.28;77.07
10135;BME280;5107;48.850;8.924;2023-11-22T08:18:45;97651.72;;;2.26;76.90
10135;BME280;5107;48.850;8.924;2023-11-22T08:21:11;97663.91;;;2.25;79.53
10135;BME280;5107;48.850;8.924;2023-11-22T08:23:37;97658.22;;;2.33;80.63
10135;BME280;5107;48.850;8.924;2023-11-22T08:26:02;97660.00;;;2.33;77.60
10135;BME280;5107;48.850;8.924;2023-11-22T08:28:29;97659.28;;;2.43;79.70
10135;BME280;5107;48.850;8.924;2023-11-22T08:30:54;97654.44;;;2.51;80.18
10135;BME280;5107;48.850;8.924;2023-11-22T08:33:19;97659.78;;;2.50;76.61
10135;BME280;5107;48.850;8.924;2023-11-22T08:35:45;97652.81;;;2.36;76.43
10135;BME280;5107;48.850;8.924;2023-11-22T08:38:16;97655.50;;;2.35;77.27
10135;BME280;5107;48.850;8.924;2023-11-22T08:40:42;97660.06;;;2.31;78.09
10135;BME280;5107;48.850;8.924;2023-11-22T08:43:07;97660.25;;;2.28;77.54
10135;BME280;5107;48.850;8.924;2023-11-22T08:45:32;97660.66;;;2.22;77.22
10135;BME280;5107;48.850;8.924;2023-11-22T08:47:59;97663.25;;;2.08;77.46
10135;BME280;5107;48.850;8.924;2023-11-22T08:50:25;97667.16;;;2.01;77.99
10135;BME280;5107;48.850;8.924;2023-11-22T08:52:50;97683.75;;;1.98;79.58
10135;BME280;5107;48.850;8.924;2023-11-22T08:55:18;97680.88;;;2.17;81.63
10135;BME280;5107;48.850;8.924;2023-11-22T08:57:47;97679.91;;;2.18;80.24
10135;BME280;5107;48.850;8.924;2023-11-22T09:00:13;97679.34;;;2.27;79.50
10135;BME280;5107;48.850;8.924;2023-11-22T09:02:39;97686.09;;;2.44;79.78
10135;BME280;5107;48.850;8.924;2023-11-22T09:05:06;97667.84;;;2.45;80.79
10135;BME280;5107;48.850;8.924;2023-11-22T09:07:36;97669.50;;;2.46;79.89
10135;BME280;5107;48.850;8.924;2023-11-22T09:10:04;97658.88;;;2.63;78.73
10135;BME280;5107;48.850;8.924;2023-11-22T09:12:37;97666.69;;;2.63;76.49
10135;BME280;5107;48.850;8.924;2023-11-22T09:15:05;97660.66;;;2.63;76.84
10135;BME280;5107;48.850;8.924;2023-11-22T09:17:33;97658.00;;;2.77;79.33
10135;BME280;5107;48.850;8.924;2023-11-22T09:19:59;97664.28;;;2.87;77.04
10135;BME280;5107;48.850;8.924;2023-11-22T09:22:24;97654.78;;;3.00;78.61
10135;BME280;5107;48.850;8.924;2023-11-22T09:24:51;97656.88;;;3.08;76.22
10135;BME280;5107;48.850;8.924;2023-11-22T09:27:16;97657.66;;;2.96;76.55
10135;BME280;5107;48.850;8.924;2023-11-22T09:29:43;97667.88;;;3.12;73.87
10135;BME280;5107;48.850;8.924;2023-11-22T09:32:08;97667.28;;;3.08;73.89
10135;BME280;5107;48.850;8.924;2023-11-22T09:34:35;97669.41;;;3.01;73.58
10135;BME280;5107;48.850;8.924;2023-11-22T09:37:01;97676.59;;;2.98;74.28
10135;BME280;5107;48.850;8.924;2023-11-22T09:39:29;97676.19;;;3.04;77.00
10135;BME280;5107;48.850;8.924;2023-11-22T09:41:55;97672.81;;;2.89;74.09
10135;BME280;5107;48.850;8.924;2023-11-22T09:44:20;97683.22;;;2.89;74.95
10135;BME280;5107;48.850;8.924;2023-11-22T09:46:48;97687.03;;;2.84;74.68
10135;BME280;5107;48.850;8.924;2023-11-22T09:49:15;97694.84;;;2.84;75.32
10135;BME280;5107;48.850;8.924;2023-11-22T09:51:43;97696.78;;;2.80;75.82
10135;BME280;5107;48.850;8.924;2023-11-22T09:54:09;97697.22;;;2.87;77.26
10135;BME280;5107;48.850;8.924;2023-11-22T09:56:39;97704.34;;;2.97;76.62
10135;BME280;5107;48.850;8.924;2023-11-22T09:59:06;97707.25;;;2.93;74.46
10135;BME280;5107;48.850;8.924;2023-11-22T10:01:33;97710.44;;;2.84;75.66
10135;BME280;5107;48.850;8.924;2023-11-22T10:04:04;97710.56;;;2.95;75.55
10135;BME280;5107;48.850;8.924;2023-11-22T10:06:31;97715.75;;;3.09;77.33
10135;BME280;5107;48.850;8.924;2023-11-22T10:09:02;97715.94;;;3.19;73.95
10135;BME280;5107;48.850;8.924;2023-11-22T10:11:36;97722.72;;;2.94;73.29
10135;BME280;5107;48.850;8.924;2023-11-22T10:14:04;97722.78;;;2.80;73.36
10135;BME280;5107;48.850;8.924;2023-11-22T10:16:30;97724.94;;;2.74;75.29
10135;BME280;5107;48.850;8.924;2023-11-22T10:18:55;97732.34;;;2.80;75.23
10135;BME280;5107;48.850;8.924;2023-11-22T10:21:28;97725.69;;;2.76;75.07
10135;BME280;5107;48.850;8.924;2023-11-22T10:24:04;97708.41;;;2.60;75.35
10135;BME280;5107;48.850;8.924;2023-11-22T10:26:34;97721.22;;;2.63;75.62
10135;BME280;5107;48.850;8.924;2023-11-22T10:29:00;97714.19;;;2.65;75.56
10135;BME280;5107;48.850;8.924;2023-11-22T10:31:27;97717.06;;;2.61;75.79
10135;BME280;5107;48.850;8.924;2023-11-22T10:33:54;97727.34;;;2.62;74.97
10135;BME280;5107;48.850;8.924;2023-11-22T10:36:22;97722.38;;;2.59;75.28
10135;BME280;5107;48.850;8.924;2023-11-22T10:38:48;97717.53;;;2.67;75.20
10135;BME280;5107;48.850;8.924;2023-11-22T10:41:14;97714.53;;;2.74;75.73
10135;BME280;5107;48.850;8.924;2023-11-22T10:43:40;97707.38;;;2.77;75.70
10135;BME280;5107;48.850;8.924;2023-11-22T10:46:09;97705.25;;;2.84;76.01
10135;BME280;5107;48.850;8.924;2023-11-22T10:48:38;97716.66;;;2.81;74.90
10135;BME280;5107;48.850;8.924;2023-11-22T10:51:05;97721.22;;;2.63;74.66
10135;BME280;5107;48.850;8.924;2023-11-22T10:53:37;97732.28;;;2.53;76.33
10135;BME280;5107;48.850;8.924;2023-11-22T10:56:25;97737.28;;;2.56;76.10
10135;BME280;5107;48.850;8.924;2023-11-22T10:58:55;97755.00;;;2.63;77.93
10135;BME280;5107;48.850;8.924;2023-11-22T11:01:24;97756.66;;;2.64;75.45
10135;BME280;5107;48.850;8.924;2023-11-22T11:03:56;97753.69;;;2.71;75.34
10135;BME280;5107;48.850;8.924;2023-11-22T11:06:30;97753.41;;;2.75;76.52
10135;BME280;5107;48.850;8.924;2023-11-22T11:09:00;97754.81;;;2.66;74.37
10135;BME280;5107;48.850;8.924;2023-11-22T11:11:27;97749.72;;;2.65;76.49
10135;BME280;5107;48.850;8.924;2023-11-22T11:13:53;97762.03;;;2.76;77.87
10135;BME280;5107;48.850;8.924;2023-11-22T11:16:19;97758.69;;;2.74;75.69
10135;BME280;5107;48.850;8.924;2023-11-22T11:18:45;97764.06;;;2.71;76.15
10135;BME280;5107;48.850;8.924;2023-11-22T11:21:11;97758.31;;;2.80;76.91
10135;BME280;5107;48.850;8.924;2023-11-22T11:23:39;97757.00;;;2.87;75.83
10135;BME280;5107;48.850;8.924;2023-11-22T11:26:25;97776.84;;;2.88;75.96
10135;BME280;5107;48.850;8.924;2023-11-22T11:28:51;97771.09;;;2.97;76.54
10135;BME280;5107;48.850;8.924;2023-11-22T11:31:21;97763.09;;;3.00;75.43
10135;BME280;5107;48.850;8.924;2023-11-22T11:36:22;97768.06;;;3.17;76.74
10135;BME280;5107;48.850;8.924;2023-11-22T11:38:58;97766.31;;;3.18;77.56
10135;BME280;5107;48.850;8.924;2023-11-22T11:41:27;97768.41;;;3.25;75.88
10135;BME280;5107;48.850;8.924;2023-11-22T11:43:53;97767.75;;;3.22;76.06
10135;BME280;5107;48.850;8.924;2023-11-22T11:46:20;97773.50;;;3.27;75.48
10135;BME280;5107;48.850;8.924;2023-11-22T11:48:51;97780.75;;;3.22;75.84
10135;BME280;5107;48.850;8.924;2023-11-22T11:51:24;97781.63;;;3.35;74.90
10135;BME280;5107;48.850;8.924;2023-11-22T11:53:50;97784.97;;;3.37;75.79
10135;BME280;5107;48.850;8.924;2023-11-22T11:56:16;97791.94;;;3.36;75.42
10135;BME280;5107;48.850;8.924;2023-11-22T11:58:44;97784.47;;;3.44;73.59
10135;BME280;5107;48.850;8.924;2023-11-22T12:01:12;97773.75;;;3.36;73.93
10135;BME280;5107;48.850;8.924;2023-11-22T12:03:38;97788.22;;;3.40;75.13
10135;BME280;5107;48.850;8.924;2023-11-22T12:06:07;97800.00;;;3.46;74.39
10135;BME280;5107;48.850;8.924;2023-11-22T12:08:33;97802.91;;;3.41;74.41
10135;BME280;5107;48.850;8.924;2023-11-22T12:11:02;97808.72;;;3.45;75.70
10135;BME280;5107;48.850;8.924;2023-11-22T12:13:29;97809.72;;;3.57;75.66
10135;BME280;5107;48.850;8.924;2023-11-22T12:15:55;97790.06;;;3.65;72.59
10135;BME280;5107;48.850;8.924;2023-11-22T12:18:22;97792.75;;;3.51;73.03
10135;BME280;5107;48.850;8.924;2023-11-22T12:20:54;97814.59;;;3.49;74.98
10135;BME280;5107;48.850;8.924;2023-11-22T12:23:21;97817.72;;;3.54;73.26
10135;BME280;5107;48.850;8.924;2023-11-22T12:25:47;97818.53;;;3.54;72.55
10135;BME280;5107;48.850;8.924;2023-11-22T12:28:16;97821.81;;;3.43;73.50
10135;BME280;5107;48.850;8.924;2023-11-22T12:30:43;97823.50;;;3.44;73.87
10135;BME280;5107;48.850;8.924;2023-11-22T12:33:10;97828.19;;;3.39;74.89
10135;BME280;5107;48.850;8.924;2023-11-22T12:35:42;97822.44;;;3.34;74.60
10135;BME280;5107;48.850;8.924;2023-11-22T12:38:09;97828.56;;;3.33;75.18
10135;BME280;5107;48.850;8.924;2023-11-22T12:40:35;97825.22;;;3.31;76.99
10135;BME280;5107;48.850;8.924;2023-11-22T12:43:01;97815.59;;;3.46;74.57
10135;BME280;5107;48.850;8.924;2023-11-22T12:45:29;97816.25;;;3.50;75.59
10135;BME280;5107;48.850;8.924;2023-11-22T12:47:55;97813.44;;;3.53;76.27
10135;BME280;5107;48.850;8.924;2023-11-22T12:50:37;97809.13;;;3.66;77.25
10135;BME280;5107;48.850;8.924;2023-11-22T12:53:16;97805.59;;;3.67;75.99
10135;BME280;5107;48.850;8.924;2023-11-22T12:55:45;97802.78;;;3.70;75.80
10135;BME280;5107;48.850;8.924;2023-11-22T12:58:16;97797.56;;;3.57;75.60
10135;BME280;5107;48.850;8.924;2023-11-22T13:00:42;97788.84;;;3.71;76.76
10135;BME280;5107;48.850;8.924;2023-11-22T13:03:09;97795.53;;;3.75;75.43
10135;BME280;5107;48.850;8.924;2023-11-22T13:05:39;97789.25;;;3.65;75.81
10135;BME280;5107;48.850;8.924;2023-11-22T13:08:07;97796.13;;;3.66;76.57
10135;BME280;5107;48.850;8.924;2023-11-22T13:10:36;97791.19;;;3.61;75.47
10135;BME280;5107;48.850;8.924;2023-11-22T13:13:01;97804.13;;;3.63;77.00
10135;BME280;5107;48.850;8.924;2023-11-22T13:15:26;97804.53;;;3.57;77.02
10135;BME280;5107;48.850;8.924;2023-11-22T13:17:55;97802.41;;;3.49;75.58
10135;BME280;5107;48.850;8.924;2023-11-22T13:20:25;97798.03;;;3.50;77.41
10135;BME280;5107;48.850;8.924;2023-11-22T13:22:54;97801.25;;;3.40;75.27